sensor_id;sensor_type;location;lat;lon;timestamp;P1;durP1;ratioP1;P2;durP2;ratioP2
21235;SDS011;10775;42.678;26.324;2023-10-31T00:00:54;4.53;;;2.67;;
21235;SDS011;10775;42.678;26.324;2023-10-31T00:03:20;3.50;;;2.42;;
21235;SDS011;10775;42.678;26.324;2023-10-31T00:05:45;4.70;;;2.50;;
21235;SDS011;10775;42.678;26.324;2023-10-31T00:08:11;4.10;;;2.90;;
21235;SDS011;10775;42.678;26.324;2023-10-31T00:10:36;4.50;;;2.47;;
21235;SDS011;10775;42.678;26.324;2023-10-31T00:13:01;4.82;;;2.63;;
21235;SDS011;10775;42.678;26.324;2023-10-31T00:15:27;3.88;;;2.70;;
21235;SDS011;10775;42.678;26.324;2023-10-31T00:17:54;3.85;;;2.78;;
21235;SDS011;10775;42.678;26.324;2023-10-31T00:20:19;3.97;;;2.65;;
21235;SDS011;10775;42.678;26.324;2023-10-31T00:22:45;3.72;;;2.38;;
21235;SDS011;10775;42.678;26.324;2023-10-31T00:25:11;8.95;;;2.65;;
21235;SDS011;10775;42.678;26.324;2023-10-31T00:27:36;4.93;;;2.78;;
21235;SDS011;10775;42.678;26.324;2023-10-31T00:30:02;4.57;;;2.30;;
21235;SDS011;10775;42.678;26.324;2023-10-31T00:32:28;5.00;;;2.20;;
21235;SDS011;10775;42.678;26.324;2023-10-31T00:34:53;3.60;;;2.50;;
21235;SDS011;10775;42.678;26.324;2023-10-31T00:37:19;3.92;;;2.35;;
21235;SDS011;10775;42.678;26.324;2023-10-31T00:39:44;2.67;;;2.00;;
21235;SDS011;10775;42.678;26.324;2023-10-31T00:42:10;4.47;;;2.35;;
21235;SDS011;10775;42.678;26.324;2023-10-31T00:44:35;3.33;;;2.17;;
21235;SDS011;10775;42.678;26.324;2023-10-31T00:47:01;3.15;;;2.15;;
21235;SDS011;10775;42.678;26.324;2023-10-31T00:49:26;4.07;;;2.00;;
21235;SDS011;10775;42.678;26.324;2023-10-31T00:51:52;3.75;;;2.30;;
21235;SDS011;10775;42.678;26.324;2023-10-31T00:54:17;4.43;;;2.22;;
21235;SDS011;10775;42.678;26.324;2023-10-31T00:56:43;2.55;;;2.05;;
21235;SDS011;10775;42.678;26.324;2023-10-31T00:59:08;5.40;;;2.55;;
21235;SDS011;10775;42.678;26.324;2023-10-31T01:01:33;5.82;;;2.60;;
21235;SDS011;10775;42.678;26.324;2023-10-31T01:03:59;2.83;;;2.20;;
21235;SDS011;10775;42.678;26.324;2023-10-31T01:06:24;4.95;;;2.30;;
21235;SDS011;10775;42.678;26.324;2023-10-31T01:08:50;4.00;;;2.60;;
21235;SDS011;10775;42.678;26.324;2023-10-31T01:11:15;3.05;;;2.35;;
21235;SDS011;10775;42.678;26.324;2023-10-31T01:13:41;4.97;;;2.22;;
21235;SDS011;10775;42.678;26.324;2023-10-31T01:16:06;2.90;;;2.20;;
21235;SDS011;10775;42.678;26.324;2023-10-31T01:18:32;4.47;;;2.50;;
21235;SDS011;10775;42.678;26.324;2023-10-31T01:20:57;4.32;;;2.40;;
21235;SDS011;10775;42.678;26.324;2023-10-31T01:23:23;4.65;;;2.33;;
21235;SDS011;10775;42.678;26.324;2023-10-31T01:25:48;2.85;;;2.15;;
21235;SDS011;10775;42.678;26.324;2023-10-31T01:28:13;3.90;;;2.08;;
21235;SDS011;10775;42.678;26.324;2023-10-31T01:30:39;3.10;;;2.42;;
21235;SDS011;10775;42.678;26.324;2023-10-31T01:33:04;5.13;;;2.60;;
21235;SDS011;10775;42.678;26.324;2023-10-31T01:35:30;4.00;;;2.45;;
21235;SDS011;10775;42.678;26.324;2023-10-31T01:37:55;5.90;;;2.80;;
21235;SDS011;10775;42.678;26.324;2023-10-31T01:40:21;5.03;;;2.53;;
21235;SDS011;10775;42.678;26.324;2023-10-31T01:42:46;3.28;;;2.20;;
21235;SDS011;10775;42.678;26.324;2023-10-31T01:45:12;3.75;;;2.40;;
21235;SDS011;10775;42.678;26.324;2023-10-31T01:47:37;4.25;;;2.28;;
21235;SDS011;10775;42.678;26.324;2023-10-31T01:50:02;4.18;;;2.50;;
21235;SDS011;10775;42.678;26.324;2023-10-31T01:52:28;3.30;;;2.13;;
21235;SDS011;10775;42.678;26.324;2023-10-31T01:54:57;5.03;;;2.13;;
21235;SDS011;10775;42.678;26.324;2023-10-31T01:57:23;3.53;;;2.28;;
21235;SDS011;10775;42.678;26.324;2023-10-31T01:59:49;3.08;;;2.17;;
21235;SDS011;10775;42.678;26.324;2023-10-31T02:02:15;3.17;;;2.10;;
21235;SDS011;10775;42.678;26.324;2023-10-31T02:04:41;3.58;;;2.08;;
21235;SDS011;10775;42.678;26.324;2023-10-31T02:07:06;3.10;;;2.33;;
21235;SDS011;10775;42.678;26.324;2023-10-31T02:09:33;3.85;;;2.20;;
21235;SDS011;10775;42.678;26.324;2023-10-31T02:11:59;4.80;;;2.83;;
21235;SDS011;10775;42.678;26.324;2023-10-31T02:14:24;3.28;;;2.38;;
21235;SDS011;10775;42.678;26.324;2023-10-31T02:16:50;3.30;;;2.30;;
21235;SDS011;10775;42.678;26.324;2023-10-31T02:19:17;4.50;;;2.22;;
21235;SDS011;10775;42.678;26.324;2023-10-31T02:21:44;3.63;;;2.40;;
21235;SDS011;10775;42.678;26.324;2023-10-31T02:24:10;4.05;;;2.15;;
21235;SDS011;10775;42.678;26.324;2023-10-31T02:26:35;3.70;;;2.33;;
21235;SDS011;10775;42.678;26.324;2023-10-31T02:29:01;2.80;;;2.13;;
21235;SDS011;10775;42.678;26.324;2023-10-31T02:31:27;2.40;;;2.00;;
21235;SDS011;10775;42.678;26.324;2023-10-31T02:33:53;2.92;;;1.90;;
21235;SDS011;10775;42.678;26.324;2023-10-31T02:36:19;6.05;;;2.63;;
21235;SDS011;10775;42.678;26.324;2023-10-31T02:38:45;4.85;;;2.05;;
21235;SDS011;10775;42.678;26.324;2023-10-31T02:41:11;3.85;;;2.30;;
21235;SDS011;10775;42.678;26.324;2023-10-31T02:43:37;3.53;;;2.10;;
21235;SDS011;10775;42.678;26.324;2023-10-31T02:46:03;4.32;;;2.33;;
21235;SDS011;10775;42.678;26.324;2023-10-31T02:48:29;2.83;;;1.90;;
21235;SDS011;10775;42.678;26.324;2023-10-31T02:50:57;2.88;;;2.08;;
21235;SDS011;10775;42.678;26.324;2023-10-31T02:53:23;8.85;;;2.45;;
21235;SDS011;10775;42.678;26.324;2023-10-31T02:55:48;4.35;;;2.10;;
21235;SDS011;10775;42.678;26.324;2023-10-31T02:58:14;3.22;;;1.90;;
21235;SDS011;10775;42.678;26.324;2023-10-31T03:00:39;3.03;;;1.73;;
21235;SDS011;10775;42.678;26.324;2023-10-31T03:03:05;3.35;;;2.15;;
21235;SDS011;10775;42.678;26.324;2023-10-31T03:05:30;4.47;;;2.05;;
21235;SDS011;10775;42.678;26.324;2023-10-31T03:07:55;4.05;;;2.10;;
21235;SDS011;10775;42.678;26.324;2023-10-31T03:10:21;2.78;;;2.08;;
21235;SDS011;10775;42.678;26.324;2023-10-31T03:12:46;5.30;;;2.35;;
21235;SDS011;10775;42.678;26.324;2023-10-31T03:15:12;3.10;;;2.00;;
21235;SDS011;10775;42.678;26.324;2023-10-31T03:17:38;5.20;;;2.65;;
21235;SDS011;10775;42.678;26.324;2023-10-31T03:20:03;3.78;;;2.60;;
21235;SDS011;10775;42.678;26.324;2023-10-31T03:22:29;4.28;;;2.40;;
21235;SDS011;10775;42.678;26.324;2023-10-31T03:24:55;3.70;;;2.60;;
21235;SDS011;10775;42.678;26.324;2023-10-31T03:27:20;5.70;;;2.85;;
21235;SDS011;10775;42.678;26.324;2023-10-31T03:29:46;3.30;;;2.55;;
21235;SDS011;10775;42.678;26.324;2023-10-31T03:32:11;3.72;;;2.60;;
21235;SDS011;10775;42.678;26.324;2023-10-31T03:34:37;4.28;;;2.65;;
21235;SDS011;10775;42.678;26.324;2023-10-31T03:37:03;3.63;;;2.38;;
21235;SDS011;10775;42.678;26.324;2023-10-31T03:39:29;4.43;;;2.70;;
21235;SDS011;10775;42.678;26.324;2023-10-31T03:41:55;3.75;;;2.75;;
21235;SDS011;10775;42.678;26.324;2023-10-31T03:44:20;3.70;;;2.25;;
21235;SDS011;10775;42.678;26.324;2023-10-31T03:46:46;3.75;;;2.60;;
21235;SDS011;10775;42.678;26.324;2023-10-31T03:49:11;2.28;;;1.90;;
21235;SDS011;10775;42.678;26.324;2023-10-31T03:51:37;2.85;;;2.15;;
21235;SDS011;10775;42.678;26.324;2023-10-31T03:54:02;3.03;;;2.13;;
21235;SDS011;10775;42.678;26.324;2023-10-31T03:56:28;3.28;;;2.00;;
21235;SDS011;10775;42.678;26.324;2023-10-31T03:58:53;4.90;;;2.28;;
21235;SDS011;10775;42.678;26.324;2023-10-31T04:01:18;3.70;;;2.40;;
21235;SDS011;10775;42.678;26.324;2023-10-31T04:03:44;5.05;;;2.50;;
21235;SDS011;10775;42.678;26.324;2023-10-31T04:06:09;4.50;;;2.28;;
21235;SDS011;10775;42.678;26.324;2023-10-31T04:08:35;4.68;;;2.45;;
21235;SDS011;10775;42.678;26.324;2023-10-31T04:11:00;3.97;;;2.35;;
21235;SDS011;10775;42.678;26.324;2023-10-31T04:13:26;4.88;;;2.75;;
21235;SDS011;10775;42.678;26.324;2023-10-31T04:15:51;4.35;;;2.30;;
21235;SDS011;10775;42.678;26.324;2023-10-31T04:18:17;3.35;;;2.13;;
21235;SDS011;10775;42.678;26.324;2023-10-31T04:20:42;3.58;;;2.08;;
21235;SDS011;10775;42.678;26.324;2023-10-31T04:23:08;4.22;;;2.13;;
21235;SDS011;10775;42.678;26.324;2023-10-31T04:25:33;3.92;;;1.85;;
21235;SDS011;10775;42.678;26.324;2023-10-31T04:27:59;3.75;;;2.10;;
21235;SDS011;10775;42.678;26.324;2023-10-31T04:30:25;2.47;;;1.88;;
21235;SDS011;10775;42.678;26.324;2023-10-31T04:32:51;4.03;;;2.10;;
21235;SDS011;10775;42.678;26.324;2023-10-31T04:35:17;2.45;;;1.90;;
21235;SDS011;10775;42.678;26.324;2023-10-31T04:37:42;3.00;;;2.03;;
21235;SDS011;10775;42.678;26.324;2023-10-31T04:40:08;3.28;;;1.90;;
21235;SDS011;10775;42.678;26.324;2023-10-31T04:42:34;3.13;;;2.00;;
21235;SDS011;10775;42.678;26.324;2023-10-31T04:44:59;3.28;;;2.00;;
21235;SDS011;10775;42.678;26.324;2023-10-31T04:47:25;2.25;;;1.70;;
21235;SDS011;10775;42.678;26.324;2023-10-31T04:49:50;2.78;;;1.90;;
21235;SDS011;10775;42.678;26.324;2023-10-31T04:52:17;2.30;;;1.67;;
21235;SDS011;10775;42.678;26.324;2023-10-31T04:54:42;2.65;;;1.75;;
21235;SDS011;10775;42.678;26.324;2023-10-31T04:57:08;4.07;;;1.90;;
21235;SDS011;10775;42.678;26.324;2023-10-31T04:59:33;3.42;;;1.88;;
21235;SDS011;10775;42.678;26.324;2023-10-31T05:01:59;3.40;;;1.83;;
21235;SDS011;10775;42.678;26.324;2023-10-31T05:04:24;4.78;;;2.20;;
21235;SDS011;10775;42.678;26.324;2023-10-31T05:06:50;2.53;;;1.77;;
21235;SDS011;10775;42.678;26.324;2023-10-31T05:09:15;4.72;;;2.30;;
21235;SDS011;10775;42.678;26.324;2023-10-31T05:11:41;4.20;;;2.25;;
21235;SDS011;10775;42.678;26.324;2023-10-31T05:14:09;4.43;;;2.25;;
21235;SDS011;10775;42.678;26.324;2023-10-31T05:16:43;6.20;;;2.47;;
21235;SDS011;10775;42.678;26.324;2023-10-31T05:19:09;3.70;;;2.38;;
21235;SDS011;10775;42.678;26.324;2023-10-31T05:21:35;5.97;;;2.35;;
21235;SDS011;10775;42.678;26.324;2023-10-31T05:24:01;2.88;;;2.13;;
21235;SDS011;10775;42.678;26.324;2023-10-31T05:26:27;4.10;;;2.70;;
21235;SDS011;10775;42.678;26.324;2023-10-31T05:28:54;4.07;;;2.10;;
21235;SDS011;10775;42.678;26.324;2023-10-31T05:31:20;3.42;;;2.10;;
21235;SDS011;10775;42.678;26.324;2023-10-31T05:33:45;4.78;;;2.22;;
21235;SDS011;10775;42.678;26.324;2023-10-31T05:36:17;3.22;;;1.95;;
21235;SDS011;10775;42.678;26.324;2023-10-31T05:38:46;2.92;;;2.00;;
21235;SDS011;10775;42.678;26.324;2023-10-31T05:41:13;6.68;;;2.40;;
21235;SDS011;10775;42.678;26.324;2023-10-31T05:43:39;2.75;;;2.13;;
21235;SDS011;10775;42.678;26.324;2023-10-31T05:46:04;5.65;;;2.50;;
21235;SDS011;10775;42.678;26.324;2023-10-31T05:48:31;7.28;;;2.90;;
21235;SDS011;10775;42.678;26.324;2023-10-31T05:50:57;5.80;;;2.45;;
21235;SDS011;10775;42.678;26.324;2023-10-31T05:53:22;5.70;;;2.50;;
21235;SDS011;10775;42.678;26.324;2023-10-31T05:55:48;7.03;;;2.55;;
21235;SDS011;10775;42.678;26.324;2023-10-31T05:58:13;9.38;;;2.30;;
21235;SDS011;10775;42.678;26.324;2023-10-31T06:00:39;5.97;;;2.22;;
21235;SDS011;10775;42.678;26.324;2023-10-31T06:03:04;6.72;;;2.40;;
21235;SDS011;10775;42.678;26.324;2023-10-31T06:05:29;5.55;;;2.40;;
21235;SDS011;10775;42.678;26.324;2023-10-31T06:07:55;3.33;;;2.15;;
21235;SDS011;10775;42.678;26.324;2023-10-31T06:10:21;4.57;;;2.50;;
21235;SDS011;10775;42.678;26.324;2023-10-31T06:12:46;4.10;;;2.28;;
21235;SDS011;10775;42.678;26.324;2023-10-31T06:15:12;6.82;;;2.30;;
21235;SDS011;10775;42.678;26.324;2023-10-31T06:17:37;5.25;;;2.35;;
21235;SDS011;10775;42.678;26.324;2023-10-31T06:20:03;3.67;;;2.20;;
21235;SDS011;10775;42.678;26.324;2023-10-31T06:22:29;7.85;;;2.20;;
21235;SDS011;10775;42.678;26.324;2023-10-31T06:24:54;6.00;;;2.22;;
21235;SDS011;10775;42.678;26.324;2023-10-31T06:27:19;6.03;;;2.33;;
21235;SDS011;10775;42.678;26.324;2023-10-31T06:29:45;5.35;;;2.13;;
21235;SDS011;10775;42.678;26.324;2023-10-31T06:32:10;4.80;;;2.20;;
21235;SDS011;10775;42.678;26.324;2023-10-31T06:34:36;4.03;;;2.50;;
21235;SDS011;10775;42.678;26.324;2023-10-31T06:37:01;4.40;;;2.63;;
21235;SDS011;10775;42.678;26.324;2023-10-31T06:39:27;27.17;;;15.70;;
21235;SDS011;10775;42.678;26.324;2023-10-31T06:41:55;26.13;;;13.25;;
21235;SDS011;10775;42.678;26.324;2023-10-31T06:44:21;11.27;;;4.85;;
21235;SDS011;10775;42.678;26.324;2023-10-31T06:46:47;8.23;;;5.25;;
21235;SDS011;10775;42.678;26.324;2023-10-31T06:49:12;11.55;;;6.35;;
21235;SDS011;10775;42.678;26.324;2023-10-31T06:51:37;12.20;;;7.43;;
21235;SDS011;10775;42.678;26.324;2023-10-31T06:54:03;12.85;;;7.20;;
21235;SDS011;10775;42.678;26.324;2023-10-31T06:56:29;14.07;;;8.02;;
21235;SDS011;10775;42.678;26.324;2023-10-31T06:58:54;19.05;;;9.15;;
21235;SDS011;10775;42.678;26.324;2023-10-31T07:01:20;16.17;;;9.13;;
21235;SDS011;10775;42.678;26.324;2023-10-31T07:03:47;18.75;;;9.15;;
21235;SDS011;10775;42.678;26.324;2023-10-31T07:06:13;17.58;;;9.73;;
21235;SDS011;10775;42.678;26.324;2023-10-31T07:08:38;17.80;;;10.68;;
21235;SDS011;10775;42.678;26.324;2023-10-31T07:11:04;22.35;;;11.63;;
21235;SDS011;10775;42.678;26.324;2023-10-31T07:13:30;24.45;;;13.10;;
21235;SDS011;10775;42.678;26.324;2023-10-31T07:15:56;37.15;;;16.40;;
21235;SDS011;10775;42.678;26.324;2023-10-31T07:18:22;36.33;;;17.83;;
21235;SDS011;10775;42.678;26.324;2023-10-31T07:20:47;30.60;;;15.75;;
21235;SDS011;10775;42.678;26.324;2023-10-31T07:23:12;34.10;;;16.50;;
21235;SDS011;10775;42.678;26.324;2023-10-31T07:25:38;29.27;;;15.63;;
21235;SDS011;10775;42.678;26.324;2023-10-31T07:28:03;30.80;;;16.27;;
21235;SDS011;10775;42.678;26.324;2023-10-31T07:30:29;24.55;;;13.07;;
21235;SDS011;10775;42.678;26.324;2023-10-31T07:32:55;27.70;;;13.93;;
21235;SDS011;10775;42.678;26.324;2023-10-31T07:35:20;24.40;;;12.63;;
21235;SDS011;10775;42.678;26.324;2023-10-31T07:37:45;27.63;;;13.80;;
21235;SDS011;10775;42.678;26.324;2023-10-31T07:40:11;31.55;;;16.30;;
21235;SDS011;10775;42.678;26.324;2023-10-31T07:42:37;33.20;;;17.27;;
21235;SDS011;10775;42.678;26.324;2023-10-31T07:45:02;31.67;;;16.98;;
21235;SDS011;10775;42.678;26.324;2023-10-31T07:47:28;30.67;;;16.52;;
21235;SDS011;10775;42.678;26.324;2023-10-31T07:49:54;30.92;;;17.42;;
21235;SDS011;10775;42.678;26.324;2023-10-31T07:52:19;38.85;;;17.92;;
21235;SDS011;10775;42.678;26.324;2023-10-31T07:54:45;28.27;;;15.32;;
21235;SDS011;10775;42.678;26.324;2023-10-31T07:57:10;31.48;;;15.63;;
21235;SDS011;10775;42.678;26.324;2023-10-31T07:59:36;41.63;;;24.35;;
21235;SDS011;10775;42.678;26.324;2023-10-31T08:02:01;33.75;;;18.75;;
21235;SDS011;10775;42.678;26.324;2023-10-31T08:04:28;23.40;;;13.88;;
21235;SDS011;10775;42.678;26.324;2023-10-31T08:06:54;31.55;;;16.92;;
21235;SDS011;10775;42.678;26.324;2023-10-31T08:09:20;33.30;;;18.60;;
21235;SDS011;10775;42.678;26.324;2023-10-31T08:11:46;29.08;;;16.08;;
21235;SDS011;10775;42.678;26.324;2023-10-31T08:14:11;28.10;;;15.52;;
21235;SDS011;10775;42.678;26.324;2023-10-31T08:16:36;30.58;;;17.73;;
21235;SDS011;10775;42.678;26.324;2023-10-31T08:19:02;33.47;;;17.88;;
21235;SDS011;10775;42.678;26.324;2023-10-31T08:21:27;37.17;;;17.35;;
21235;SDS011;10775;42.678;26.324;2023-10-31T08:23:58;36.90;;;19.10;;
21235;SDS011;10775;42.678;26.324;2023-10-31T08:26:27;41.27;;;22.63;;
21235;SDS011;10775;42.678;26.324;2023-10-31T08:28:52;38.05;;;21.73;;
21235;SDS011;10775;42.678;26.324;2023-10-31T08:31:18;30.40;;;16.92;;
21235;SDS011;10775;42.678;26.324;2023-10-31T08:33:44;43.38;;;20.55;;
21235;SDS011;10775;42.678;26.324;2023-10-31T08:36:10;44.25;;;23.02;;
21235;SDS011;10775;42.678;26.324;2023-10-31T08:38:35;40.42;;;20.35;;
21235;SDS011;10775;42.678;26.324;2023-10-31T08:41:01;37.60;;;19.35;;
21235;SDS011;10775;42.678;26.324;2023-10-31T08:43:26;32.20;;;17.55;;
21235;SDS011;10775;42.678;26.324;2023-10-31T08:45:52;35.35;;;17.75;;
21235;SDS011;10775;42.678;26.324;2023-10-31T08:48:17;41.22;;;21.10;;
21235;SDS011;10775;42.678;26.324;2023-10-31T08:50:43;51.22;;;26.13;;
21235;SDS011;10775;42.678;26.324;2023-10-31T08:53:08;38.30;;;19.95;;
21235;SDS011;10775;42.678;26.324;2023-10-31T08:55:33;38.72;;;19.73;;
21235;SDS011;10775;42.678;26.324;2023-10-31T08:57:59;48.22;;;24.75;;
21235;SDS011;10775;42.678;26.324;2023-10-31T09:00:24;38.15;;;20.90;;
21235;SDS011;10775;42.678;26.324;2023-10-31T09:02:51;35.47;;;18.00;;
21235;SDS011;10775;42.678;26.324;2023-10-31T09:05:16;45.85;;;23.23;;
21235;SDS011;10775;42.678;26.324;2023-10-31T09:07:42;41.45;;;22.00;;
21235;SDS011;10775;42.678;26.324;2023-10-31T09:10:08;40.50;;;21.15;;
21235;SDS011;10775;42.678;26.324;2023-10-31T09:12:34;31.30;;;16.13;;
21235;SDS011;10775;42.678;26.324;2023-10-31T09:14:59;53.85;;;27.30;;
21235;SDS011;10775;42.678;26.324;2023-10-31T09:17:24;40.72;;;21.80;;
21235;SDS011;10775;42.678;26.324;2023-10-31T09:19:50;27.92;;;15.48;;
21235;SDS011;10775;42.678;26.324;2023-10-31T09:22:15;41.25;;;16.05;;
21235;SDS011;10775;42.678;26.324;2023-10-31T09:24:41;48.45;;;21.38;;
21235;SDS011;10775;42.678;26.324;2023-10-31T09:27:07;28.48;;;14.52;;
21235;SDS011;10775;42.678;26.324;2023-10-31T09:29:33;34.83;;;18.30;;
21235;SDS011;10775;42.678;26.324;2023-10-31T09:31:58;36.67;;;19.83;;
21235;SDS011;10775;42.678;26.324;2023-10-31T09:34:24;32.60;;;17.40;;
21235;SDS011;10775;42.678;26.324;2023-10-31T09:36:49;28.35;;;14.27;;
21235;SDS011;10775;42.678;26.324;2023-10-31T09:39:15;28.83;;;16.05;;
21235;SDS011;10775;42.678;26.324;2023-10-31T09:41:40;32.78;;;16.20;;
21235;SDS011;10775;42.678;26.324;2023-10-31T09:44:06;29.67;;;15.45;;
21235;SDS011;10775;42.678;26.324;2023-10-31T09:46:31;33.80;;;16.10;;
21235;SDS011;10775;42.678;26.324;2023-10-31T09:48:57;20.70;;;9.98;;
21235;SDS011;10775;42.678;26.324;2023-10-31T09:51:22;29.40;;;15.25;;
21235;SDS011;10775;42.678;26.324;2023-10-31T09:53:48;29.38;;;15.50;;
21235;SDS011;10775;42.678;26.324;2023-10-31T09:56:19;26.15;;;14.90;;
21235;SDS011;10775;42.678;26.324;2023-10-31T09:58:45;25.60;;;13.75;;
21235;SDS011;10775;42.678;26.324;2023-10-31T10:01:12;26.65;;;11.63;;
21235;SDS011;10775;42.678;26.324;2023-10-31T10:03:37;23.98;;;12.02;;
21235;SDS011;10775;42.678;26.324;2023-10-31T10:06:03;24.52;;;11.60;;
21235;SDS011;10775;42.678;26.324;2023-10-31T10:08:29;23.67;;;12.27;;
21235;SDS011;10775;42.678;26.324;2023-10-31T10:10:55;23.80;;;12.30;;
21235;SDS011;10775;42.678;26.324;2023-10-31T10:13:20;18.50;;;11.00;;
21235;SDS011;10775;42.678;26.324;2023-10-31T10:15:47;16.48;;;10.48;;
21235;SDS011;10775;42.678;26.324;2023-10-31T10:18:32;16.08;;;8.50;;
21235;SDS011;10775;42.678;26.324;2023-10-31T10:21:06;19.00;;;9.73;;
21235;SDS011;10775;42.678;26.324;2023-10-31T10:23:33;17.65;;;10.70;;
21235;SDS011;10775;42.678;26.324;2023-10-31T10:25:59;23.65;;;13.45;;
21235;SDS011;10775;42.678;26.324;2023-10-31T10:28:25;20.27;;;12.30;;
21235;SDS011;10775;42.678;26.324;2023-10-31T10:30:52;20.92;;;12.93;;
21235;SDS011;10775;42.678;26.324;2023-10-31T10:33:21;20.65;;;10.93;;
21235;SDS011;10775;42.678;26.324;2023-10-31T10:35:47;15.07;;;8.38;;
21235;SDS011;10775;42.678;26.324;2023-10-31T10:38:14;21.00;;;10.40;;
21235;SDS011;10775;42.678;26.324;2023-10-31T10:40:45;18.50;;;10.40;;
21235;SDS011;10775;42.678;26.324;2023-10-31T10:43:21;27.45;;;18.70;;
21235;SDS011;10775;42.678;26.324;2023-10-31T10:45:57;18.27;;;9.65;;
21235;SDS011;10775;42.678;26.324;2023-10-31T10:48:24;15.15;;;7.82;;
21235;SDS011;10775;42.678;26.324;2023-10-31T10:50:52;18.10;;;7.45;;
21235;SDS011;10775;42.678;26.324;2023-10-31T10:53:25;13.95;;;6.95;;
21235;SDS011;10775;42.678;26.324;2023-10-31T10:55:59;39.20;;;26.05;;
21235;SDS011;10775;42.678;26.324;2023-10-31T10:58:33;22.38;;;9.48;;
21235;SDS011;10775;42.678;26.324;2023-10-31T11:01:10;17.08;;;8.95;;
21235;SDS011;10775;42.678;26.324;2023-10-31T11:03:36;12.93;;;7.85;;
21235;SDS011;10775;42.678;26.324;2023-10-31T11:06:03;16.98;;;7.55;;
21235;SDS011;10775;42.678;26.324;2023-10-31T11:08:31;15.02;;;8.27;;
21235;SDS011;10775;42.678;26.324;2023-10-31T11:10:57;13.93;;;7.30;;
21235;SDS011;10775;42.678;26.324;2023-10-31T11:13:23;15.35;;;7.43;;
21235;SDS011;10775;42.678;26.324;2023-10-31T11:15:51;12.98;;;6.40;;
21235;SDS011;10775;42.678;26.324;2023-10-31T11:18:20;12.73;;;7.80;;
21235;SDS011;10775;42.678;26.324;2023-10-31T11:20:45;9.85;;;5.93;;
21235;SDS011;10775;42.678;26.324;2023-10-31T11:23:11;9.70;;;5.72;;
21235;SDS011;10775;42.678;26.324;2023-10-31T11:25:42;12.02;;;6.63;;
21235;SDS011;10775;42.678;26.324;2023-10-31T11:28:15;13.20;;;6.45;;
21235;SDS011;10775;42.678;26.324;2023-10-31T11:30:42;11.02;;;5.68;;
21235;SDS011;10775;42.678;26.324;2023-10-31T11:33:14;9.35;;;6.13;;
21235;SDS011;10775;42.678;26.324;2023-10-31T11:35:59;9.65;;;5.60;;
21235;SDS011;10775;42.678;26.324;2023-10-31T11:38:36;5.93;;;4.85;;
21235;SDS011;10775;42.678;26.324;2023-10-31T11:41:03;9.55;;;5.80;;
21235;SDS011;10775;42.678;26.324;2023-10-31T11:46:19;8.18;;;5.90;;
21235;SDS011;10775;42.678;26.324;2023-10-31T11:48:53;13.60;;;8.20;;
21235;SDS011;10775;42.678;26.324;2023-10-31T11:51:22;20.33;;;13.32;;
21235;SDS011;10775;42.678;26.324;2023-10-31T11:53:48;21.20;;;13.52;;
21235;SDS011;10775;42.678;26.324;2023-10-31T11:56:15;24.60;;;13.10;;
21235;SDS011;10775;42.678;26.324;2023-10-31T11:58:40;7.65;;;5.97;;
21235;SDS011;10775;42.678;26.324;2023-10-31T12:01:09;18.23;;;11.35;;
21235;SDS011;10775;42.678;26.324;2023-10-31T12:03:39;7.23;;;6.30;;
21235;SDS011;10775;42.678;26.324;2023-10-31T12:06:09;10.30;;;6.80;;
21235;SDS011;10775;42.678;26.324;2023-10-31T12:08:39;23.00;;;14.18;;
21235;SDS011;10775;42.678;26.324;2023-10-31T12:11:18;13.60;;;9.05;;
21235;SDS011;10775;42.678;26.324;2023-10-31T12:13:54;13.60;;;10.10;;
21235;SDS011;10775;42.678;26.324;2023-10-31T12:16:25;27.58;;;15.18;;
21235;SDS011;10775;42.678;26.324;2023-10-31T12:18:56;13.77;;;10.02;;
21235;SDS011;10775;42.678;26.324;2023-10-31T12:21:45;18.85;;;11.98;;
21235;SDS011;10775;42.678;26.324;2023-10-31T12:24:16;12.15;;;7.22;;
21235;SDS011;10775;42.678;26.324;2023-10-31T12:26:42;23.90;;;14.10;;
21235;SDS011;10775;42.678;26.324;2023-10-31T12:34:18;22.83;;;12.68;;
21235;SDS011;10775;42.678;26.324;2023-10-31T12:36:46;21.33;;;13.25;;
21235;SDS011;10775;42.678;26.324;2023-10-31T12:39:12;35.10;;;18.73;;
21235;SDS011;10775;42.678;26.324;2023-10-31T12:41:39;35.45;;;19.23;;
21235;SDS011;10775;42.678;26.324;2023-10-31T12:44:06;27.42;;;16.17;;
21235;SDS011;10775;42.678;26.324;2023-10-31T12:46:39;12.27;;;8.77;;
21235;SDS011;10775;42.678;26.324;2023-10-31T12:49:12;22.98;;;11.90;;
21235;SDS011;10775;42.678;26.324;2023-10-31T12:54:35;24.33;;;14.52;;
21235;SDS011;10775;42.678;26.324;2023-10-31T12:57:08;16.02;;;10.15;;
21235;SDS011;10775;42.678;26.324;2023-10-31T12:59:35;24.75;;;12.93;;
21235;SDS011;10775;42.678;26.324;2023-10-31T13:02:02;31.13;;;18.92;;
21235;SDS011;10775;42.678;26.324;2023-10-31T13:04:30;16.60;;;12.00;;
21235;SDS011;10775;42.678;26.324;2023-10-31T13:07:01;30.35;;;18.50;;
21235;SDS011;10775;42.678;26.324;2023-10-31T13:09:36;30.73;;;18.15;;
21235;SDS011;10775;42.678;26.324;2023-10-31T13:12:04;19.48;;;12.77;;
21235;SDS011;10775;42.678;26.324;2023-10-31T13:14:30;16.45;;;10.00;;
21235;SDS011;10775;42.678;26.324;2023-10-31T13:16:56;17.05;;;11.32;;
21235;SDS011;10775;42.678;26.324;2023-10-31T13:19:21;21.55;;;13.05;;
21235;SDS011;10775;42.678;26.324;2023-10-31T13:21:47;25.10;;;15.27;;
21235;SDS011;10775;42.678;26.324;2023-10-31T13:24:13;26.42;;;14.18;;
21235;SDS011;10775;42.678;26.324;2023-10-31T13:26:38;15.15;;;9.85;;
21235;SDS011;10775;42.678;26.324;2023-10-31T13:29:04;13.90;;;8.43;;
21235;SDS011;10775;42.678;26.324;2023-10-31T13:31:29;16.95;;;11.35;;
21235;SDS011;10775;42.678;26.324;2023-10-31T13:33:55;18.52;;;13.00;;
21235;SDS011;10775;42.678;26.324;2023-10-31T13:36:20;11.02;;;7.72;;
21235;SDS011;10775;42.678;26.324;2023-10-31T13:38:46;21.15;;;10.25;;
21235;SDS011;10775;42.678;26.324;2023-10-31T13:41:13;13.88;;;7.65;;
21235;SDS011;10775;42.678;26.324;2023-10-31T13:43:38;11.38;;;7.72;;
21235;SDS011;10775;42.678;26.324;2023-10-31T13:46:04;24.25;;;14.43;;
21235;SDS011;10775;42.678;26.324;2023-10-31T13:48:31;13.05;;;9.77;;
21235;SDS011;10775;42.678;26.324;2023-10-31T13:50:56;19.35;;;11.30;;
21235;SDS011;10775;42.678;26.324;2023-10-31T13:53:22;12.23;;;8.73;;
21235;SDS011;10775;42.678;26.324;2023-10-31T13:55:47;17.40;;;10.23;;
21235;SDS011;10775;42.678;26.324;2023-10-31T13:58:13;19.95;;;13.38;;
21235;SDS011;10775;42.678;26.324;2023-10-31T14:00:39;16.70;;;12.07;;
21235;SDS011;10775;42.678;26.324;2023-10-31T14:03:04;29.85;;;17.38;;
21235;SDS011;10775;42.678;26.324;2023-10-31T14:05:30;34.45;;;21.05;;
21235;SDS011;10775;42.678;26.324;2023-10-31T14:07:56;30.50;;;17.75;;
21235;SDS011;10775;42.678;26.324;2023-10-31T14:10:21;22.30;;;15.25;;
21235;SDS011;10775;42.678;26.324;2023-10-31T14:12:48;30.35;;;17.20;;
21235;SDS011;10775;42.678;26.324;2023-10-31T14:15:13;22.65;;;13.50;;
21235;SDS011;10775;42.678;26.324;2023-10-31T14:17:39;18.17;;;11.57;;
21235;SDS011;10775;42.678;26.324;2023-10-31T14:20:05;25.25;;;15.05;;
21235;SDS011;10775;42.678;26.324;2023-10-31T14:22:30;26.02;;;15.07;;
21235;SDS011;10775;42.678;26.324;2023-10-31T14:24:56;21.13;;;14.02;;
21235;SDS011;10775;42.678;26.324;2023-10-31T14:27:22;16.48;;;9.70;;
21235;SDS011;10775;42.678;26.324;2023-10-31T14:29:47;10.90;;;7.95;;